DKH715 ZBAA-ZGHA
Flight info
| Callsign | DKH715 |
|---|---|
| Flight time | 2h 9m |
| Altitude | 38100 |
| Route | RUSDO6J RUSDO W45 IPLEV B458 DADGA W37 GUSIV GUS01A |
| Aircraft | A20N/M-SDE2E3FGHIRWXY/LB1 |
Departure
| Time | 2026-04-24 05:28 |
|---|---|
| Airport | Beijing Capital International Airport (ZBAA) |
Arrival
| Time | 2026-04-24 07:38 |
|---|---|
| Airport | Changsha Huanghua International Airport (ZGHA) |
| Time | Latitude | Longitude | Altitude | Speed | Heading |
|---|---|---|---|---|---|
| 2026-04-24 05:12 | 40.06013 | 116.60702 | 123 ft | 0 kts | 63° |
| 2026-04-24 05:21 | 40.06007 | 116.60693 | 123 ft | 2 kts | 358° |
| 2026-04-24 05:21 | 40.05995 | 116.60704 | 120 ft | 2 kts | 1° |
| 2026-04-24 05:22 | 40.05986 | 116.60691 | 120 ft | 2 kts | 95° |
| 2026-04-24 05:22 | 40.05987 | 116.60670 | 119 ft | 2 kts | 96° |
| 2026-04-24 05:22 | 40.05989 | 116.60649 | 123 ft | 2 kts | 97° |
| 2026-04-24 05:22 | 40.05991 | 116.60628 | 121 ft | 2 kts | 95° |
| 2026-04-24 05:23 | 40.05993 | 116.60607 | 121 ft | 2 kts | 95° |
| 2026-04-24 05:23 | 40.05994 | 116.60586 | 123 ft | 2 kts | 99° |
| 2026-04-24 05:23 | 40.05998 | 116.60565 | 122 ft | 2 kts | 145° |
| 2026-04-24 05:23 | 40.06009 | 116.60559 | 118 ft | 0 kts | 172° |
| 2026-04-24 05:25 | 40.06008 | 116.60559 | 118 ft | 1 kts | 174° |
| 2026-04-24 05:25 | 40.05986 | 116.60562 | 118 ft | 8 kts | 174° |
| 2026-04-24 05:25 | 40.05900 | 116.60575 | 122 ft | 16 kts | 173° |
| 2026-04-24 05:26 | 40.05772 | 116.60595 | 120 ft | 20 kts | 173° |
| 2026-04-24 05:26 | 40.05630 | 116.60616 | 120 ft | 15 kts | 177° |
| 2026-04-24 05:26 | 40.05580 | 116.60569 | 121 ft | 10 kts | 251° |
| 2026-04-24 05:26 | 40.05569 | 116.60450 | 120 ft | 16 kts | 263° |
| 2026-04-24 05:27 | 40.05554 | 116.60292 | 123 ft | 19 kts | 263° |
| 2026-04-24 05:27 | 40.05539 | 116.60116 | 123 ft | 20 kts | 269° |
| 2026-04-24 05:27 | 40.05628 | 116.60004 | 121 ft | 18 kts | 347° |
| 2026-04-24 05:27 | 40.05760 | 116.59981 | 124 ft | 23 kts | 353° |
| 2026-04-24 05:28 | 40.06107 | 116.59928 | 122 ft | 84 kts | 353° |
| 2026-04-24 05:28 | 40.06890 | 116.59806 | 118 ft | 139 kts | 353° |
| 2026-04-24 05:28 | 40.07953 | 116.59641 | 415 ft | 157 kts | 353° |
| 2026-04-24 05:28 | 40.09056 | 116.59469 | 920 ft | 164 kts | 352° |
| 2026-04-24 05:29 | 40.10218 | 116.59254 | 1414 ft | 169 kts | 352° |
| 2026-04-24 05:29 | 40.11337 | 116.59048 | 1856 ft | 161 kts | 352° |
| 2026-04-24 05:29 | 40.12500 | 116.58848 | 2382 ft | 176 kts | 353° |
| 2026-04-24 05:29 | 40.13768 | 116.58655 | 2940 ft | 195 kts | 352° |
| 2026-04-24 05:30 | 40.15167 | 116.58446 | 3521 ft | 211 kts | 351° |
| 2026-04-24 05:30 | 40.16703 | 116.58223 | 4122 ft | 230 kts | 352° |
| 2026-04-24 05:30 | 40.18353 | 116.57969 | 4826 ft | 247 kts | 351° |
| 2026-04-24 05:30 | 40.20102 | 116.57692 | 5531 ft | 258 kts | 351° |
| 2026-04-24 05:31 | 40.21919 | 116.57412 | 6293 ft | 267 kts | 351° |
| 2026-04-24 05:31 | 40.23763 | 116.57099 | 7022 ft | 272 kts | 346° |
| 2026-04-24 05:31 | 40.25528 | 116.56220 | 7843 ft | 273 kts | 327° |
| 2026-04-24 05:31 | 40.27026 | 116.54698 | 8692 ft | 275 kts | 316° |
| 2026-04-24 05:32 | 40.28455 | 116.53018 | 9594 ft | 278 kts | 316° |
| 2026-04-24 05:32 | 40.29917 | 116.51306 | 10356 ft | 286 kts | 314° |
| 2026-04-24 05:32 | 40.31134 | 116.49161 | 10663 ft | 305 kts | 294° |
| 2026-04-24 05:32 | 40.31691 | 116.46396 | 10942 ft | 324 kts | 272° |
| 2026-04-24 05:33 | 40.31680 | 116.43403 | 11759 ft | 330 kts | 269° |
| 2026-04-24 05:33 | 40.31658 | 116.40399 | 12746 ft | 332 kts | 270° |
| 2026-04-24 05:33 | 40.31651 | 116.37347 | 13556 ft | 337 kts | 270° |
| 2026-04-24 05:34 | 40.31653 | 116.32195 | 14787 ft | 343 kts | 270° |
| 2026-04-24 05:34 | 40.31652 | 116.28204 | 15663 ft | 348 kts | 270° |
| 2026-04-24 05:34 | 40.31651 | 116.26089 | 16139 ft | 351 kts | 270° |
| 2026-04-24 05:34 | 40.31647 | 116.22865 | 16883 ft | 355 kts | 270° |
| 2026-04-24 05:35 | 40.31643 | 116.18549 | 17798 ft | 360 kts | 270° |
| 2026-04-24 05:35 | 40.31637 | 116.15246 | 18450 ft | 364 kts | 270° |
| 2026-04-24 05:35 | 40.31632 | 116.12015 | 19013 ft | 366 kts | 270° |
| 2026-04-24 05:35 | 40.31627 | 116.09658 | 19437 ft | 368 kts | 270° |
| 2026-04-24 05:36 | 40.31619 | 116.06285 | 19997 ft | 371 kts | 270° |
| 2026-04-24 05:36 | 40.31591 | 116.02893 | 20584 ft | 374 kts | 266° |
| 2026-04-24 05:36 | 40.31087 | 115.99587 | 21116 ft | 378 kts | 251° |
| 2026-04-24 05:36 | 40.29871 | 115.96528 | 21658 ft | 383 kts | 235° |
| 2026-04-24 05:37 | 40.28009 | 115.93996 | 22134 ft | 391 kts | 219° |
| 2026-04-24 05:37 | 40.25650 | 115.92167 | 22678 ft | 396 kts | 210° |
| 2026-04-24 05:37 | 40.23186 | 115.90509 | 23204 ft | 399 kts | 209° |
| 2026-04-24 05:37 | 40.20701 | 115.88837 | 23699 ft | 402 kts | 210° |
| 2026-04-24 05:38 | 40.18207 | 115.87156 | 24183 ft | 404 kts | 210° |
| 2026-04-24 05:38 | 40.15729 | 115.85481 | 24640 ft | 407 kts | 210° |
| 2026-04-24 05:38 | 40.13212 | 115.83778 | 25081 ft | 409 kts | 210° |
| 2026-04-24 05:38 | 40.10681 | 115.82064 | 25516 ft | 411 kts | 210° |
| 2026-04-24 05:39 | 40.08127 | 115.80337 | 25928 ft | 414 kts | 210° |
| 2026-04-24 05:39 | 40.05567 | 115.78608 | 26358 ft | 416 kts | 210° |
| 2026-04-24 05:39 | 40.02987 | 115.76866 | 26767 ft | 418 kts | 210° |
| 2026-04-24 05:39 | 40.00395 | 115.75118 | 27170 ft | 420 kts | 210° |
| 2026-04-24 05:40 | 39.97790 | 115.73363 | 27559 ft | 422 kts | 210° |
| 2026-04-24 05:40 | 39.95169 | 115.71598 | 27962 ft | 424 kts | 210° |
| 2026-04-24 05:40 | 39.92569 | 115.69850 | 28321 ft | 426 kts | 210° |
| 2026-04-24 05:40 | 39.89917 | 115.68067 | 28689 ft | 429 kts | 210° |
| 2026-04-24 05:41 | 39.87280 | 115.66243 | 29040 ft | 429 kts | 214° |
| 2026-04-24 05:41 | 39.84897 | 115.63923 | 29355 ft | 427 kts | 225° |
| 2026-04-24 05:41 | 39.82920 | 115.61052 | 29656 ft | 426 kts | 236° |
| 2026-04-24 05:41 | 39.81396 | 115.57743 | 29936 ft | 426 kts | 244° |
| 2026-04-24 05:42 | 39.80017 | 115.54322 | 30269 ft | 427 kts | 244° |
| 2026-04-24 05:42 | 39.78626 | 115.50901 | 30588 ft | 429 kts | 243° |
| 2026-04-24 05:42 | 39.77223 | 115.47470 | 30890 ft | 430 kts | 243° |
| 2026-04-24 05:42 | 39.75833 | 115.44080 | 31266 ft | 429 kts | 243° |
| 2026-04-24 05:43 | 39.74440 | 115.40607 | 31693 ft | 428 kts | 244° |
| 2026-04-24 05:43 | 39.73104 | 115.37214 | 32108 ft | 425 kts | 244° |
| 2026-04-24 05:43 | 39.71761 | 115.33794 | 32502 ft | 424 kts | 244° |
| 2026-04-24 05:43 | 39.70416 | 115.30377 | 32836 ft | 423 kts | 244° |
| 2026-04-24 05:44 | 39.69075 | 115.26983 | 33275 ft | 420 kts | 243° |
| 2026-04-24 05:44 | 39.67738 | 115.23614 | 33665 ft | 419 kts | 243° |
| 2026-04-24 05:44 | 39.66404 | 115.20255 | 33980 ft | 418 kts | 243° |
| 2026-04-24 05:44 | 39.65070 | 115.16902 | 34212 ft | 418 kts | 243° |
| 2026-04-24 05:45 | 39.63735 | 115.13553 | 34438 ft | 418 kts | 243° |
| 2026-04-24 05:45 | 39.62414 | 115.10242 | 34662 ft | 419 kts | 243° |
| 2026-04-24 05:45 | 39.61069 | 115.06875 | 34866 ft | 419 kts | 243° |
| 2026-04-24 05:45 | 39.59724 | 115.03513 | 35075 ft | 420 kts | 243° |
| 2026-04-24 05:46 | 39.58380 | 115.00155 | 35269 ft | 420 kts | 243° |
| 2026-04-24 05:46 | 39.57030 | 114.96786 | 35473 ft | 420 kts | 243° |
| 2026-04-24 05:46 | 39.55691 | 114.93449 | 35715 ft | 420 kts | 243° |
| 2026-04-24 05:46 | 39.54341 | 114.90087 | 35902 ft | 420 kts | 244° |
| 2026-04-24 05:47 | 39.52992 | 114.86734 | 36088 ft | 420 kts | 244° |
| 2026-04-24 05:47 | 39.51637 | 114.83368 | 36269 ft | 420 kts | 244° |
| 2026-04-24 05:47 | 39.50284 | 114.80010 | 36463 ft | 420 kts | 244° |
| 2026-04-24 05:47 | 39.48930 | 114.76653 | 36632 ft | 420 kts | 244° |
| 2026-04-24 05:48 | 39.47573 | 114.73293 | 36804 ft | 421 kts | 244° |
| 2026-04-24 05:48 | 39.46228 | 114.69968 | 36980 ft | 421 kts | 244° |
| 2026-04-24 05:48 | 39.44867 | 114.66607 | 37138 ft | 421 kts | 244° |
| 2026-04-24 05:48 | 39.43509 | 114.63256 | 37291 ft | 421 kts | 244° |
| 2026-04-24 05:49 | 39.42146 | 114.59897 | 37448 ft | 421 kts | 244° |
| 2026-04-24 05:49 | 39.40784 | 114.56543 | 37613 ft | 421 kts | 244° |
| 2026-04-24 05:49 | 39.39419 | 114.53187 | 37776 ft | 421 kts | 244° |
| 2026-04-24 05:49 | 39.38055 | 114.49834 | 37898 ft | 421 kts | 244° |
| 2026-04-24 05:50 | 39.34586 | 114.43759 | 37988 ft | 428 kts | 226° |
| 2026-04-24 05:50 | 39.29723 | 114.39292 | 37991 ft | 434 kts | 209° |
| 2026-04-24 05:51 | 39.23913 | 114.36963 | 37990 ft | 444 kts | 191° |
| 2026-04-24 05:51 | 39.17688 | 114.37156 | 37990 ft | 453 kts | 172° |
| 2026-04-24 05:52 | 39.11538 | 114.38757 | 37986 ft | 452 kts | 172° |
| 2026-04-24 05:52 | 39.05369 | 114.40335 | 37980 ft | 450 kts | 172° |
| 2026-04-24 05:53 | 38.99225 | 114.41890 | 37964 ft | 448 kts | 172° |
| 2026-04-24 05:53 | 38.93123 | 114.43432 | 37989 ft | 452 kts | 172° |
| 2026-04-24 05:54 | 38.86937 | 114.44997 | 37985 ft | 452 kts | 172° |
| 2026-04-24 05:54 | 38.80764 | 114.46556 | 37984 ft | 451 kts | 173° |
| 2026-04-24 05:55 | 38.74591 | 114.48118 | 37970 ft | 452 kts | 172° |
| 2026-04-24 05:55 | 38.68467 | 114.49673 | 37966 ft | 451 kts | 172° |
| 2026-04-24 05:56 | 38.62303 | 114.51235 | 37959 ft | 450 kts | 173° |
| 2026-04-24 05:56 | 38.56147 | 114.52794 | 37955 ft | 450 kts | 173° |
| 2026-04-24 05:57 | 38.50046 | 114.54348 | 37944 ft | 449 kts | 173° |
| 2026-04-24 05:57 | 38.43901 | 114.55902 | 37946 ft | 449 kts | 173° |
| 2026-04-24 05:58 | 38.37763 | 114.57278 | 37936 ft | 448 kts | 174° |
| 2026-04-24 05:58 | 38.31616 | 114.58628 | 37933 ft | 448 kts | 174° |
| 2026-04-24 05:59 | 38.25452 | 114.60001 | 37937 ft | 448 kts | 174° |
| 2026-04-24 05:59 | 38.19340 | 114.61368 | 37936 ft | 449 kts | 174° |
| 2026-04-24 06:00 | 38.13179 | 114.62770 | 37945 ft | 449 kts | 174° |
| 2026-04-24 06:00 | 38.06996 | 114.64141 | 37948 ft | 450 kts | 174° |
| 2026-04-24 06:01 | 38.00852 | 114.65495 | 37957 ft | 450 kts | 174° |
| 2026-04-24 06:01 | 37.94654 | 114.66868 | 37963 ft | 451 kts | 174° |
| 2026-04-24 06:02 | 37.88469 | 114.68239 | 37969 ft | 452 kts | 174° |
| 2026-04-24 06:02 | 37.82305 | 114.69604 | 37976 ft | 452 kts | 174° |
| 2026-04-24 06:03 | 37.76103 | 114.70974 | 37981 ft | 452 kts | 174° |
| 2026-04-24 06:03 | 37.69892 | 114.72344 | 37982 ft | 453 kts | 174° |
| 2026-04-24 06:04 | 37.63670 | 114.73714 | 37989 ft | 453 kts | 174° |
| 2026-04-24 06:04 | 37.57490 | 114.75072 | 37979 ft | 453 kts | 174° |
| 2026-04-24 06:05 | 37.51296 | 114.76431 | 37981 ft | 451 kts | 174° |
| 2026-04-24 06:05 | 37.45094 | 114.77784 | 37982 ft | 451 kts | 174° |
| 2026-04-24 06:06 | 37.38924 | 114.79123 | 37979 ft | 451 kts | 174° |
| 2026-04-24 06:06 | 37.32733 | 114.80466 | 37983 ft | 451 kts | 174° |
| 2026-04-24 06:07 | 37.26558 | 114.81810 | 37986 ft | 452 kts | 174° |
| 2026-04-24 06:07 | 37.20365 | 114.83255 | 37987 ft | 452 kts | 174° |
| 2026-04-24 06:08 | 37.14167 | 114.84712 | 37991 ft | 452 kts | 174° |
| 2026-04-24 06:08 | 37.07970 | 114.86155 | 37989 ft | 452 kts | 174° |
| 2026-04-24 06:09 | 37.01816 | 114.87581 | 37995 ft | 452 kts | 174° |
| 2026-04-24 06:09 | 36.95623 | 114.89014 | 37997 ft | 452 kts | 174° |
| 2026-04-24 06:10 | 36.89426 | 114.90445 | 38001 ft | 452 kts | 174° |
| 2026-04-24 06:11 | 36.80165 | 114.92580 | 38004 ft | 453 kts | 174° |
| 2026-04-24 06:11 | 36.73961 | 114.94007 | 38006 ft | 453 kts | 174° |
| 2026-04-24 06:12 | 36.67763 | 114.95430 | 38009 ft | 453 kts | 174° |
| 2026-04-24 06:12 | 36.61554 | 114.96854 | 38013 ft | 453 kts | 174° |
| 2026-04-24 06:13 | 36.55348 | 114.98274 | 38011 ft | 453 kts | 174° |
| 2026-04-24 06:13 | 36.49174 | 114.99685 | 38021 ft | 453 kts | 174° |
| 2026-04-24 06:14 | 36.42962 | 115.01103 | 38022 ft | 453 kts | 174° |
| 2026-04-24 06:14 | 36.36742 | 115.02302 | 38025 ft | 450 kts | 180° |
| 2026-04-24 06:15 | 36.30570 | 115.02305 | 38028 ft | 443 kts | 190° |
| 2026-04-24 06:15 | 36.24415 | 115.01637 | 38032 ft | 443 kts | 189° |
| 2026-04-24 06:16 | 36.18261 | 115.00998 | 38040 ft | 444 kts | 189° |
| 2026-04-24 06:16 | 36.12105 | 115.00369 | 38042 ft | 444 kts | 189° |
| 2026-04-24 06:17 | 36.05947 | 114.99741 | 38046 ft | 444 kts | 189° |
| 2026-04-24 06:17 | 35.99816 | 114.99117 | 38054 ft | 444 kts | 189° |
| 2026-04-24 06:18 | 35.93658 | 114.98490 | 38059 ft | 444 kts | 189° |
| 2026-04-24 06:18 | 35.87488 | 114.97864 | 38056 ft | 444 kts | 189° |
| 2026-04-24 06:19 | 35.81328 | 114.97239 | 38060 ft | 444 kts | 189° |
| 2026-04-24 06:19 | 35.75194 | 114.96618 | 38070 ft | 444 kts | 189° |
| 2026-04-24 06:20 | 35.69027 | 114.95995 | 38074 ft | 444 kts | 189° |
| 2026-04-24 06:20 | 35.62868 | 114.95373 | 38075 ft | 444 kts | 189° |
| 2026-04-24 06:21 | 35.56718 | 114.94754 | 38076 ft | 443 kts | 189° |
| 2026-04-24 06:21 | 35.51602 | 114.94239 | 38080 ft | 443 kts | 189° |
| 2026-04-24 06:22 | 35.45446 | 114.93620 | 38086 ft | 443 kts | 189° |
| 2026-04-24 06:22 | 35.39299 | 114.93004 | 38087 ft | 443 kts | 189° |
| 2026-04-24 06:23 | 35.33164 | 114.92389 | 38092 ft | 442 kts | 189° |
| 2026-04-24 06:23 | 35.27071 | 114.91779 | 38095 ft | 442 kts | 190° |
| 2026-04-24 06:24 | 35.20941 | 114.91167 | 38098 ft | 441 kts | 190° |
| 2026-04-24 06:24 | 35.14821 | 114.90557 | 38096 ft | 441 kts | 190° |
| 2026-04-24 06:25 | 35.08695 | 114.89947 | 38102 ft | 441 kts | 190° |
| 2026-04-24 06:25 | 35.02582 | 114.89340 | 38102 ft | 440 kts | 190° |
| 2026-04-24 06:26 | 34.96475 | 114.88734 | 38108 ft | 440 kts | 190° |
| 2026-04-24 06:26 | 34.90415 | 114.88134 | 38107 ft | 439 kts | 190° |
| 2026-04-24 06:27 | 34.84315 | 114.87531 | 38111 ft | 439 kts | 190° |
| 2026-04-24 06:27 | 34.78225 | 114.86929 | 38113 ft | 439 kts | 190° |
| 2026-04-24 06:28 | 34.72139 | 114.86329 | 38117 ft | 439 kts | 191° |
| 2026-04-24 06:28 | 34.66044 | 114.85728 | 38120 ft | 438 kts | 191° |
| 2026-04-24 06:29 | 34.59993 | 114.85133 | 38122 ft | 438 kts | 191° |
| 2026-04-24 06:29 | 34.53918 | 114.84536 | 38127 ft | 438 kts | 191° |
| 2026-04-24 06:30 | 34.47841 | 114.83940 | 38132 ft | 438 kts | 191° |
| 2026-04-24 06:30 | 34.41766 | 114.83345 | 38127 ft | 437 kts | 191° |
| 2026-04-24 06:31 | 34.35738 | 114.82755 | 38132 ft | 437 kts | 191° |
| 2026-04-24 06:31 | 34.29671 | 114.82163 | 38132 ft | 437 kts | 191° |
| 2026-04-24 06:32 | 34.23600 | 114.81570 | 38138 ft | 436 kts | 191° |
| 2026-04-24 06:32 | 34.17544 | 114.80980 | 38139 ft | 436 kts | 191° |
| 2026-04-24 06:33 | 34.11533 | 114.80399 | 38139 ft | 436 kts | 191° |
| 2026-04-24 06:33 | 34.05476 | 114.79818 | 38135 ft | 435 kts | 191° |
| 2026-04-24 06:34 | 33.99443 | 114.79238 | 38140 ft | 435 kts | 191° |
| 2026-04-24 06:34 | 33.93402 | 114.78659 | 38137 ft | 435 kts | 191° |
| 2026-04-24 06:35 | 33.87401 | 114.78084 | 38142 ft | 434 kts | 191° |
| 2026-04-24 06:35 | 33.81368 | 114.77501 | 38137 ft | 434 kts | 192° |
| 2026-04-24 06:36 | 33.75346 | 114.76895 | 38141 ft | 433 kts | 192° |
| 2026-04-24 06:36 | 33.69361 | 114.76294 | 38139 ft | 433 kts | 192° |
| 2026-04-24 06:37 | 33.63340 | 114.75735 | 38138 ft | 433 kts | 191° |
| 2026-04-24 06:37 | 33.57328 | 114.75183 | 38140 ft | 433 kts | 192° |
| 2026-04-24 06:38 | 33.51322 | 114.74562 | 38139 ft | 432 kts | 192° |
| 2026-04-24 06:38 | 33.45353 | 114.73944 | 38142 ft | 432 kts | 192° |
| 2026-04-24 06:39 | 33.39353 | 114.73366 | 38145 ft | 432 kts | 192° |
| 2026-04-24 06:39 | 33.33343 | 114.72790 | 38141 ft | 432 kts | 192° |
| 2026-04-24 06:40 | 33.27345 | 114.72212 | 38142 ft | 432 kts | 192° |
| 2026-04-24 06:40 | 33.21344 | 114.71634 | 38148 ft | 432 kts | 192° |
| 2026-04-24 06:41 | 33.15381 | 114.71051 | 38151 ft | 432 kts | 193° |
| 2026-04-24 06:41 | 33.09385 | 114.70456 | 38149 ft | 431 kts | 193° |
| 2026-04-24 06:42 | 33.03399 | 114.69865 | 38154 ft | 431 kts | 193° |
| 2026-04-24 06:42 | 32.97457 | 114.69280 | 38149 ft | 431 kts | 193° |
| 2026-04-24 06:43 | 32.91477 | 114.68692 | 38152 ft | 430 kts | 193° |
| 2026-04-24 06:43 | 32.85500 | 114.68110 | 38155 ft | 430 kts | 193° |
| 2026-04-24 06:44 | 32.79539 | 114.67549 | 38156 ft | 429 kts | 193° |
| 2026-04-24 06:44 | 32.73610 | 114.66991 | 38151 ft | 429 kts | 193° |
| 2026-04-24 06:45 | 32.67662 | 114.66431 | 38154 ft | 428 kts | 193° |
| 2026-04-24 06:45 | 32.61721 | 114.65871 | 38149 ft | 428 kts | 193° |
| 2026-04-24 06:46 | 32.55782 | 114.65312 | 38146 ft | 427 kts | 193° |
| 2026-04-24 06:46 | 32.49852 | 114.64755 | 38136 ft | 427 kts | 193° |
| 2026-04-24 06:47 | 32.43926 | 114.64199 | 38140 ft | 427 kts | 193° |
| 2026-04-24 06:47 | 32.38042 | 114.63647 | 38136 ft | 426 kts | 193° |
| 2026-04-24 06:48 | 32.32131 | 114.63076 | 38139 ft | 426 kts | 193° |
| 2026-04-24 06:48 | 32.26212 | 114.62495 | 38136 ft | 426 kts | 193° |
| 2026-04-24 06:49 | 32.20301 | 114.61918 | 38137 ft | 426 kts | 193° |
| 2026-04-24 06:49 | 32.14414 | 114.61347 | 38137 ft | 426 kts | 193° |
| 2026-04-24 06:50 | 32.08491 | 114.60772 | 38139 ft | 427 kts | 194° |
| 2026-04-24 06:50 | 32.02597 | 114.60201 | 38146 ft | 427 kts | 194° |
| 2026-04-24 06:51 | 31.96662 | 114.59627 | 38149 ft | 428 kts | 193° |
| 2026-04-24 06:51 | 31.90726 | 114.59053 | 38146 ft | 428 kts | 193° |
| 2026-04-24 06:52 | 31.84773 | 114.58479 | 38146 ft | 429 kts | 193° |
| 2026-04-24 06:52 | 31.78817 | 114.57905 | 38151 ft | 430 kts | 193° |
| 2026-04-24 06:53 | 31.72850 | 114.57330 | 38156 ft | 430 kts | 193° |
| 2026-04-24 06:53 | 31.66866 | 114.56754 | 38157 ft | 431 kts | 193° |
| 2026-04-24 06:54 | 31.60917 | 114.56183 | 38156 ft | 431 kts | 193° |
| 2026-04-24 06:54 | 31.54951 | 114.55614 | 38156 ft | 430 kts | 193° |
| 2026-04-24 06:55 | 31.48979 | 114.55042 | 38148 ft | 430 kts | 193° |
| 2026-04-24 06:55 | 31.43006 | 114.54472 | 38155 ft | 430 kts | 193° |
| 2026-04-24 06:56 | 31.37071 | 114.53906 | 38153 ft | 430 kts | 193° |
| 2026-04-24 06:56 | 31.31094 | 114.53337 | 38151 ft | 430 kts | 193° |
| 2026-04-24 06:57 | 31.25222 | 114.52408 | 38150 ft | 419 kts | 203° |
| 2026-04-24 06:57 | 31.19810 | 114.50115 | 38145 ft | 409 kts | 211° |
| 2026-04-24 06:58 | 31.14665 | 114.47307 | 38148 ft | 408 kts | 213° |
| 2026-04-24 06:58 | 31.09545 | 114.44438 | 38150 ft | 408 kts | 213° |
| 2026-04-24 06:59 | 31.04442 | 114.41601 | 38151 ft | 408 kts | 213° |
| 2026-04-24 06:59 | 30.99300 | 114.38756 | 38163 ft | 409 kts | 213° |
| 2026-04-24 07:00 | 30.94161 | 114.35918 | 38173 ft | 409 kts | 213° |
| 2026-04-24 07:00 | 30.88986 | 114.33116 | 38174 ft | 410 kts | 211° |
| 2026-04-24 07:01 | 30.83774 | 114.30411 | 38177 ft | 410 kts | 211° |
| 2026-04-24 07:01 | 30.78613 | 114.27707 | 38177 ft | 409 kts | 212° |
| 2026-04-24 07:02 | 30.73464 | 114.24891 | 38176 ft | 408 kts | 212° |
| 2026-04-24 07:02 | 30.68321 | 114.22081 | 38165 ft | 408 kts | 212° |
| 2026-04-24 07:03 | 30.63180 | 114.19289 | 38164 ft | 408 kts | 212° |
| 2026-04-24 07:03 | 30.58040 | 114.16504 | 38163 ft | 408 kts | 212° |
| 2026-04-24 07:04 | 30.52899 | 114.13722 | 38149 ft | 408 kts | 212° |
| 2026-04-24 07:04 | 30.47757 | 114.10944 | 38154 ft | 407 kts | 212° |
| 2026-04-24 07:05 | 30.42624 | 114.08174 | 38150 ft | 407 kts | 212° |
| 2026-04-24 07:05 | 30.37488 | 114.05405 | 38148 ft | 407 kts | 212° |
| 2026-04-24 07:06 | 30.32375 | 114.02652 | 38143 ft | 407 kts | 212° |
| 2026-04-24 07:06 | 30.27227 | 113.99883 | 38142 ft | 408 kts | 212° |
| 2026-04-24 07:07 | 30.22043 | 113.97097 | 38153 ft | 411 kts | 212° |
| 2026-04-24 07:07 | 30.15151 | 113.93412 | 38155 ft | 409 kts | 212° |
| 2026-04-24 07:08 | 30.09135 | 113.90195 | 38153 ft | 409 kts | 212° |
| 2026-04-24 07:08 | 30.03964 | 113.87435 | 38161 ft | 409 kts | 212° |
| 2026-04-24 07:09 | 29.99659 | 113.85138 | 38155 ft | 410 kts | 212° |
| 2026-04-24 07:09 | 29.94477 | 113.82377 | 38164 ft | 410 kts | 212° |
| 2026-04-24 07:10 | 29.89172 | 113.79866 | 38162 ft | 416 kts | 205° |
| 2026-04-24 07:10 | 29.83472 | 113.78334 | 38168 ft | 426 kts | 196° |
| 2026-04-24 07:11 | 29.77512 | 113.77788 | 38168 ft | 431 kts | 191° |
| 2026-04-24 07:11 | 29.71561 | 113.77388 | 38105 ft | 430 kts | 191° |
| 2026-04-24 07:12 | 29.68564 | 113.77181 | 37836 ft | 428 kts | 191° |
| 2026-04-24 07:12 | 29.65599 | 113.76976 | 37566 ft | 426 kts | 191° |
| 2026-04-24 07:12 | 29.62646 | 113.76770 | 37297 ft | 426 kts | 192° |
| 2026-04-24 07:12 | 29.59682 | 113.76562 | 37038 ft | 426 kts | 192° |
| 2026-04-24 07:13 | 29.56722 | 113.76355 | 36774 ft | 426 kts | 192° |
| 2026-04-24 07:13 | 29.53762 | 113.76149 | 36514 ft | 425 kts | 192° |
| 2026-04-24 07:13 | 29.50804 | 113.75944 | 36263 ft | 425 kts | 192° |
| 2026-04-24 07:13 | 29.47846 | 113.75744 | 36007 ft | 426 kts | 191° |
| 2026-04-24 07:14 | 29.44917 | 113.75549 | 35761 ft | 427 kts | 192° |
| 2026-04-24 07:14 | 29.41947 | 113.75341 | 35517 ft | 426 kts | 192° |
| 2026-04-24 07:14 | 29.38985 | 113.75131 | 35277 ft | 426 kts | 192° |
| 2026-04-24 07:14 | 29.36021 | 113.74922 | 34921 ft | 426 kts | 192° |
| 2026-04-24 07:15 | 29.33065 | 113.74716 | 34405 ft | 426 kts | 192° |
| 2026-04-24 07:15 | 29.30089 | 113.74507 | 33499 ft | 431 kts | 192° |
| 2026-04-24 07:15 | 29.27069 | 113.74293 | 32431 ft | 438 kts | 191° |
| 2026-04-24 07:15 | 29.24064 | 113.74094 | 31364 ft | 442 kts | 189° |
| 2026-04-24 07:16 | 29.20966 | 113.74125 | 30573 ft | 445 kts | 186° |
| 2026-04-24 07:16 | 29.17887 | 113.74233 | 30064 ft | 438 kts | 186° |
| 2026-04-24 07:16 | 29.14868 | 113.74325 | 29681 ft | 428 kts | 186° |
| 2026-04-24 07:16 | 29.11909 | 113.74407 | 29138 ft | 424 kts | 186° |
| 2026-04-24 07:17 | 29.08949 | 113.74484 | 28435 ft | 426 kts | 186° |
| 2026-04-24 07:17 | 29.06008 | 113.74561 | 27570 ft | 429 kts | 186° |
| 2026-04-24 07:17 | 29.03024 | 113.74644 | 26963 ft | 426 kts | 185° |
| 2026-04-24 07:17 | 29.00090 | 113.74732 | 26620 ft | 416 kts | 185° |
| 2026-04-24 07:18 | 28.97205 | 113.74820 | 26177 ft | 413 kts | 185° |
| 2026-04-24 07:18 | 28.94325 | 113.74902 | 25633 ft | 415 kts | 185° |
| 2026-04-24 07:18 | 28.91428 | 113.74982 | 25273 ft | 415 kts | 185° |
| 2026-04-24 07:18 | 28.88532 | 113.75064 | 24760 ft | 418 kts | 185° |
| 2026-04-24 07:19 | 28.85610 | 113.75148 | 24163 ft | 419 kts | 185° |
| 2026-04-24 07:19 | 28.82726 | 113.75232 | 23584 ft | 418 kts | 185° |
| 2026-04-24 07:19 | 28.79828 | 113.75318 | 22974 ft | 414 kts | 185° |
| 2026-04-24 07:19 | 28.76971 | 113.75403 | 22422 ft | 408 kts | 185° |
| 2026-04-24 07:20 | 28.74151 | 113.75478 | 21877 ft | 402 kts | 186° |
| 2026-04-24 07:20 | 28.71393 | 113.75325 | 21329 ft | 394 kts | 190° |
| 2026-04-24 07:20 | 28.68671 | 113.75107 | 20789 ft | 390 kts | 190° |
| 2026-04-24 07:20 | 28.65979 | 113.74895 | 20263 ft | 386 kts | 190° |
| 2026-04-24 07:21 | 28.63315 | 113.74687 | 19737 ft | 382 kts | 190° |
| 2026-04-24 07:21 | 28.60669 | 113.74487 | 19208 ft | 379 kts | 189° |
| 2026-04-24 07:21 | 28.58038 | 113.74297 | 18686 ft | 376 kts | 189° |
| 2026-04-24 07:21 | 28.55444 | 113.74112 | 18163 ft | 372 kts | 189° |
| 2026-04-24 07:22 | 28.52872 | 113.73928 | 17687 ft | 367 kts | 189° |
| 2026-04-24 07:22 | 28.50375 | 113.73749 | 17238 ft | 362 kts | 188° |
| 2026-04-24 07:22 | 28.47884 | 113.73569 | 16846 ft | 356 kts | 188° |
| 2026-04-24 07:22 | 28.45404 | 113.73388 | 16366 ft | 359 kts | 188° |
| 2026-04-24 07:23 | 28.42875 | 113.73201 | 16027 ft | 368 kts | 187° |
| 2026-04-24 07:23 | 28.40291 | 113.73010 | 15465 ft | 375 kts | 187° |
| 2026-04-24 07:23 | 28.37682 | 113.72820 | 14999 ft | 373 kts | 186° |
| 2026-04-24 07:23 | 28.35095 | 113.72634 | 14469 ft | 371 kts | 186° |
| 2026-04-24 07:24 | 28.32576 | 113.72454 | 13945 ft | 369 kts | 186° |
| 2026-04-24 07:24 | 28.30022 | 113.72271 | 13393 ft | 366 kts | 186° |
| 2026-04-24 07:24 | 28.27486 | 113.72089 | 12874 ft | 363 kts | 186° |
| 2026-04-24 07:24 | 28.25000 | 113.71910 | 12368 ft | 360 kts | 186° |
| 2026-04-24 07:25 | 28.22500 | 113.71731 | 11852 ft | 358 kts | 185° |
| 2026-04-24 07:25 | 28.20016 | 113.71549 | 11340 ft | 356 kts | 185° |
| 2026-04-24 07:25 | 28.17548 | 113.71367 | 10828 ft | 354 kts | 185° |
| 2026-04-24 07:25 | 28.15094 | 113.71187 | 10421 ft | 350 kts | 185° |
| 2026-04-24 07:26 | 28.12709 | 113.71013 | 10289 ft | 337 kts | 185° |
| 2026-04-24 07:26 | 28.10414 | 113.70832 | 10170 ft | 324 kts | 186° |
| 2026-04-24 07:26 | 28.08209 | 113.70637 | 10062 ft | 312 kts | 186° |
| 2026-04-24 07:26 | 28.06101 | 113.70445 | 9723 ft | 305 kts | 186° |
| 2026-04-24 07:27 | 28.04006 | 113.70164 | 9104 ft | 301 kts | 197° |
| 2026-04-24 07:27 | 28.02182 | 113.69097 | 8638 ft | 294 kts | 223° |
| 2026-04-24 07:27 | 28.01002 | 113.67292 | 8459 ft | 283 kts | 249° |
| 2026-04-24 07:27 | 28.00563 | 113.65139 | 8130 ft | 281 kts | 267° |
| 2026-04-24 07:28 | 28.00495 | 113.62941 | 7774 ft | 280 kts | 271° |
| 2026-04-24 07:28 | 28.00499 | 113.60745 | 7421 ft | 278 kts | 271° |
| 2026-04-24 07:28 | 28.00478 | 113.58551 | 7070 ft | 277 kts | 270° |
| 2026-04-24 07:28 | 28.00419 | 113.56368 | 6711 ft | 278 kts | 269° |
| 2026-04-24 07:29 | 28.00329 | 113.54212 | 6355 ft | 277 kts | 268° |
| 2026-04-24 07:29 | 28.00223 | 113.52033 | 5984 ft | 277 kts | 268° |
| 2026-04-24 07:29 | 28.00113 | 113.49855 | 5634 ft | 276 kts | 268° |
| 2026-04-24 07:29 | 28.00003 | 113.47694 | 5279 ft | 274 kts | 267° |
| 2026-04-24 07:30 | 27.99896 | 113.45543 | 4914 ft | 272 kts | 267° |
| 2026-04-24 07:30 | 27.99788 | 113.43401 | 4554 ft | 271 kts | 267° |
| 2026-04-24 07:30 | 27.99681 | 113.41308 | 4208 ft | 269 kts | 267° |
| 2026-04-24 07:30 | 27.99575 | 113.39213 | 3989 ft | 263 kts | 266° |
| 2026-04-24 07:31 | 27.99471 | 113.37187 | 3930 ft | 249 kts | 267° |
| 2026-04-24 07:31 | 27.99377 | 113.35316 | 3903 ft | 229 kts | 267° |
| 2026-04-24 07:31 | 27.99289 | 113.33574 | 3734 ft | 216 kts | 267° |
| 2026-04-24 07:31 | 27.99205 | 113.31893 | 3507 ft | 213 kts | 267° |
| 2026-04-24 07:32 | 27.99124 | 113.30233 | 3288 ft | 210 kts | 267° |
| 2026-04-24 07:32 | 27.99042 | 113.28564 | 3018 ft | 215 kts | 267° |
| 2026-04-24 07:32 | 27.98959 | 113.26859 | 2757 ft | 213 kts | 269° |
| 2026-04-24 07:32 | 27.99207 | 113.25284 | 2609 ft | 194 kts | 298° |
| 2026-04-24 07:33 | 28.00031 | 113.24194 | 2377 ft | 178 kts | 327° |
| 2026-04-24 07:33 | 28.01176 | 113.23633 | 2306 ft | 187 kts | 346° |
| 2026-04-24 07:33 | 28.02410 | 113.23401 | 2303 ft | 169 kts | 354° |
| 2026-04-24 07:33 | 28.03546 | 113.23306 | 2300 ft | 164 kts | 357° |
| 2026-04-24 07:34 | 28.04709 | 113.23237 | 2310 ft | 166 kts | 356° |
| 2026-04-24 07:34 | 28.05850 | 113.23166 | 2299 ft | 166 kts | 357° |
| 2026-04-24 07:34 | 28.06998 | 113.23097 | 2271 ft | 166 kts | 356° |
| 2026-04-24 07:34 | 28.08132 | 113.23025 | 2058 ft | 157 kts | 357° |
| 2026-04-24 07:35 | 28.09179 | 113.22958 | 1869 ft | 144 kts | 357° |
| 2026-04-24 07:35 | 28.10140 | 113.22902 | 1686 ft | 137 kts | 356° |
| 2026-04-24 07:35 | 28.11098 | 113.22843 | 1504 ft | 138 kts | 356° |
| 2026-04-24 07:35 | 28.12048 | 113.22786 | 1324 ft | 136 kts | 356° |
| 2026-04-24 07:36 | 28.12984 | 113.22728 | 1132 ft | 135 kts | 356° |
| 2026-04-24 07:36 | 28.13927 | 113.22670 | 949 ft | 136 kts | 356° |
| 2026-04-24 07:36 | 28.14864 | 113.22613 | 751 ft | 134 kts | 356° |
| 2026-04-24 07:36 | 28.15795 | 113.22554 | 567 ft | 134 kts | 356° |
| 2026-04-24 07:37 | 28.16726 | 113.22497 | 383 ft | 133 kts | 356° |
| 2026-04-24 07:37 | 28.17648 | 113.22441 | 219 ft | 131 kts | 356° |
| 2026-04-24 07:37 | 28.18397 | 113.22393 | 217 ft | 79 kts | 358° |
| 2026-04-24 07:37 | 28.18814 | 113.22372 | 216 ft | 54 kts | 354° |
| 2026-04-24 07:38 | 28.19075 | 113.22343 | 215 ft | 23 kts | 346° |
| 2026-04-24 07:38 | 28.19226 | 113.22276 | 217 ft | 25 kts | 327° |
| 2026-04-24 07:38 | 28.19368 | 113.22181 | 214 ft | 16 kts | 330° |
| 2026-04-24 07:38 | 28.19478 | 113.22139 | 214 ft | 18 kts | 354° |
| 2026-04-24 07:39 | 28.19608 | 113.22131 | 214 ft | 20 kts | 355° |
| 2026-04-24 07:39 | 28.19749 | 113.22121 | 215 ft | 21 kts | 356° |
| 2026-04-24 07:39 | 28.19901 | 113.22111 | 217 ft | 23 kts | 357° |
| 2026-04-24 07:39 | 28.19998 | 113.22106 | 214 ft | 10 kts | 357° |
| 2026-04-24 07:40 | 28.20073 | 113.22074 | 214 ft | 11 kts | 291° |
| 2026-04-24 07:40 | 28.20072 | 113.21971 | 215 ft | 14 kts | 266° |
| 2026-04-24 07:40 | 28.20066 | 113.21846 | 214 ft | 17 kts | 266° |
| 2026-04-24 07:40 | 28.20040 | 113.21732 | 213 ft | 10 kts | 201° |
| 2026-04-24 07:41 | 28.19952 | 113.21721 | 213 ft | 18 kts | 178° |
| 2026-04-24 07:41 | 28.19807 | 113.21734 | 213 ft | 23 kts | 176° |
| 2026-04-24 07:41 | 28.19636 | 113.21744 | 214 ft | 25 kts | 176° |
| 2026-04-24 07:41 | 28.19454 | 113.21756 | 219 ft | 27 kts | 177° |
| 2026-04-24 07:42 | 28.19284 | 113.21767 | 214 ft | 13 kts | 177° |
| 2026-04-24 07:42 | 28.19201 | 113.21771 | 216 ft | 11 kts | 179° |
| 2026-04-24 07:42 | 28.19158 | 113.21712 | 217 ft | 12 kts | 264° |
| 2026-04-24 07:42 | 28.19154 | 113.21609 | 213 ft | 13 kts | 265° |
| 2026-04-24 07:43 | 28.19143 | 113.21545 | 220 ft | 8 kts | 232° |
| 2026-04-24 07:43 | 28.19103 | 113.21538 | 213 ft | 4 kts | 188° |
| 2026-04-24 07:43 | 28.19091 | 113.21536 | 213 ft | 0 kts | 188° |